Time;durP1;ratioP1;P1;durP2;ratioP2;P2;SDS_P1;SDS_P2;PMS_P1;PMS_P2;Temp;Humidity;BMP_temperature;BMP_pressure;BME280_temperature;BME280_humidity;BME280_pressure;Samples;Min_cycle;Max_cycle;Signal;HPM_P1;HPM_P2
2022/11/10 00:00:29;;;;;;;6.85;2.65;;;10.40;99.90;;;;;;5046046;28;20122;-67
2022/11/10 00:03:02;;;;;;;8.82;3.03;;;10.40;99.90;;;;;;5046847;28;20036;-66
2022/11/10 00:05:28;;;;;;;11.15;3.20;;;10.40;99.90;;;;;;5045460;28;20469;-66
2022/11/10 00:07:54;;;;;;;6.68;2.90;;;10.40;99.90;;;;;;5044365;28;20033;-68
2022/11/10 00:10:19;;;;;;;10.52;3.47;;;10.40;99.90;;;;;;5041208;28;20470;-71
2022/11/10 00:12:45;;;;;;;7.57;3.22;;;10.40;99.90;;;;;;5027522;28;20025;-67
2022/11/10 00:17:55;;;;;;;9.55;3.40;;;10.50;99.90;;;;;;5035210;28;20076;-67
2022/11/10 00:20:20;;;;;;;11.23;3.70;;;10.50;99.90;;;;;;5030068;28;20061;-66
2022/11/10 00:22:46;;;;;;;8.82;3.70;;;10.50;99.90;;;;;;5028145;28;20072;-67
2022/11/10 00:25:12;;;;;;;9.55;4.18;;;10.50;99.90;;;;;;5039516;28;20557;-69
2022/11/10 00:27:37;;;;;;;10.63;3.60;;;10.50;99.90;;;;;;5041069;28;20040;-68
2022/11/10 00:30:04;;;;;;;11.63;3.80;;;10.50;99.90;;;;;;5028922;28;20028;-67
2022/11/10 00:32:30;;;;;;;11.27;3.90;;;10.50;99.90;;;;;;5042326;28;20446;-68
2022/11/10 00:34:56;;;;;;;11.18;4.13;;;10.50;99.90;;;;;;5042268;28;20025;-67
2022/11/10 00:37:21;;;;;;;9.43;3.63;;;10.50;99.90;;;;;;5039240;28;20037;-66
2022/11/10 00:39:47;;;;;;;11.55;4.18;;;10.50;99.90;;;;;;5028119;28;20033;-67
2022/11/10 00:42:13;;;;;;;18.02;3.88;;;10.50;99.90;;;;;;5028356;28;20115;-66
2022/11/10 00:44:38;;;;;;;10.90;3.90;;;10.50;99.90;;;;;;5030994;28;20033;-67
2022/11/10 00:47:04;;;;;;;12.98;4.10;;;10.50;99.90;;;;;;5045136;28;20055;-68
2022/11/10 00:49:30;;;;;;;13.25;3.25;;;10.40;99.90;;;;;;5031016;28;20488;-69
2022/11/10 00:51:55;;;;;;;9.20;3.53;;;10.40;99.90;;;;;;5027384;28;20029;-69
2022/11/10 00:54:21;;;;;;;12.30;3.97;;;10.40;99.90;;;;;;5028048;28;20048;-66
2022/11/10 00:56:47;;;;;;;10.82;4.20;;;10.40;99.90;;;;;;5039810;28;20029;-67
2022/11/10 00:59:12;;;;;;;9.77;3.80;;;10.30;99.90;;;;;;5028656;28;20095;-70
2022/11/10 01:01:38;;;;;;;12.45;4.18;;;10.30;99.90;;;;;;5039154;28;20458;-67
2022/11/10 01:04:04;;;;;;;11.15;3.75;;;10.40;99.90;;;;;;5028548;28;20052;-68
2022/11/10 01:06:29;;;;;;;20.08;4.63;;;10.40;99.90;;;;;;5026626;28;20038;-75
2022/11/10 01:08:55;;;;;;;12.50;4.97;;;10.40;99.90;;;;;;5045403;28;20116;-67
2022/11/10 01:11:23;;;;;;;11.13;4.15;;;10.40;99.90;;;;;;5035855;28;20037;-68
2022/11/10 01:13:50;;;;;;;12.85;3.85;;;10.40;99.90;;;;;;5035100;28;20199;-66
2022/11/10 01:16:25;;;;;;;12.48;4.10;;;10.40;99.90;;;;;;5028886;28;20437;-66
2022/11/10 01:18:53;;;;;;;11.43;4.40;;;10.40;99.90;;;;;;5043004;28;20422;-66
2022/11/10 01:21:20;;;;;;;11.55;4.60;;;10.40;99.90;;;;;;5046517;28;20048;-68
2022/11/10 01:23:46;;;;;;;15.48;4.57;;;10.40;99.90;;;;;;5025802;28;20039;-67
2022/11/10 01:26:12;;;;;;;10.45;4.82;;;10.40;99.90;;;;;;5028245;28;20036;-67
2022/11/10 01:28:38;;;;;;;13.50;4.70;;;10.40;99.90;;;;;;5041301;28;20041;-66
2022/11/10 01:31:07;;;;;;;9.68;4.55;;;10.40;99.90;;;;;;5045279;28;20106;-67
2022/11/10 01:33:33;;;;;;;10.18;4.30;;;10.40;99.90;;;;;;5047999;28;20469;-65
2022/11/10 01:36:00;;;;;;;11.75;4.93;;;10.40;99.90;;;;;;5031419;28;20048;-70
2022/11/10 01:38:27;;;;;;;11.40;4.55;;;10.40;99.90;;;;;;5028615;28;20041;-70
2022/11/10 01:40:53;;;;;;;10.18;4.35;;;10.40;99.90;;;;;;5027494;28;20021;-67
2022/11/10 01:43:19;;;;;;;14.13;4.80;;;10.30;99.90;;;;;;5043939;28;20036;-69
2022/11/10 01:45:53;;;;;;;13.82;4.65;;;10.40;99.90;;;;;;5039238;28;20094;-68
2022/11/10 01:48:30;;;;;;;10.60;4.43;;;10.40;99.90;;;;;;5048567;28;20028;-67
2022/11/10 01:51:00;;;;;;;15.75;5.72;;;10.40;99.90;;;;;;5038396;28;20083;-67
2022/11/10 01:53:29;;;;;;;10.70;3.90;;;10.30;99.90;;;;;;5027481;28;20061;-69
2022/11/10 01:55:55;;;;;;;12.82;5.13;;;10.30;99.90;;;;;;5027263;28;20037;-70
2022/11/10 01:58:27;;;;;;;12.20;4.50;;;10.30;99.90;;;;;;5030368;28;20041;-67
2022/11/10 02:00:53;;;;;;;11.10;4.50;;;10.30;99.90;;;;;;5044254;28;20201;-67
2022/11/10 02:03:33;;;;;;;13.57;4.45;;;10.30;99.90;;;;;;5048547;28;20079;-65
2022/11/10 02:05:59;;;;;;;14.23;5.07;;;10.40;99.90;;;;;;5035446;28;20029;-67
2022/11/10 02:08:26;;;;;;;11.57;4.80;;;10.40;99.90;;;;;;5049626;28;20036;-68
2022/11/10 02:10:52;;;;;;;9.98;4.88;;;10.40;99.90;;;;;;5043641;28;20048;-68
2022/11/10 02:13:18;;;;;;;12.43;4.70;;;10.40;99.90;;;;;;5052463;28;20466;-66
2022/11/10 02:15:44;;;;;;;12.55;4.72;;;10.40;99.90;;;;;;5044332;28;20056;-67
2022/11/10 02:18:10;;;;;;;16.05;5.10;;;10.50;99.90;;;;;;5051296;28;20061;-70
2022/11/10 02:20:35;;;;;;;16.33;4.85;;;10.50;99.90;;;;;;5031384;28;20029;-68
2022/11/10 02:23:34;;;;;;;15.50;4.90;;;10.50;99.90;;;;;;5031827;28;20121;-66
2022/11/10 02:26:02;;;;;;;13.27;4.50;;;10.50;99.90;;;;;;5031082;28;20045;-65
2022/11/10 02:28:31;;;;;;;12.20;4.78;;;10.50;99.90;;;;;;5048789;28;20444;-69
2022/11/10 02:30:57;;;;;;;15.10;5.97;;;10.60;99.90;;;;;;5046262;28;20207;-67
2022/11/10 02:33:22;;;;;;;13.43;4.97;;;10.50;99.90;;;;;;5040140;28;20112;-68
2022/11/10 02:35:48;;;;;;;10.50;4.63;;;10.50;99.90;;;;;;5038608;28;20060;-66
2022/11/10 02:38:13;;;;;;;13.82;5.15;;;10.50;99.90;;;;;;5033401;28;20042;-70
2022/11/10 02:40:39;;;;;;;22.15;5.32;;;10.50;99.90;;;;;;5042880;28;20119;-68
2022/11/10 02:43:08;;;;;;;19.95;4.65;;;10.50;99.90;;;;;;5041321;28;20038;-67
2022/11/10 02:45:33;;;;;;;15.00;5.55;;;10.50;99.90;;;;;;5047303;28;20115;-73
2022/11/10 02:47:59;;;;;;;16.10;5.00;;;10.40;99.90;;;;;;5045967;28;20104;-68
2022/11/10 02:50:25;;;;;;;11.57;4.88;;;10.40;99.90;;;;;;5044682;28;20535;-68
2022/11/10 02:52:50;;;;;;;12.80;4.50;;;10.30;99.90;;;;;;5038567;28;20466;-67
2022/11/10 02:55:16;;;;;;;14.73;5.15;;;10.30;99.90;;;;;;5027708;28;20115;-65
2022/11/10 02:57:41;;;;;;;10.30;4.72;;;10.20;99.90;;;;;;5039575;28;20068;-67
2022/11/10 03:00:08;;;;;;;14.20;4.95;;;10.20;99.90;;;;;;5044643;28;20040;-66
2022/11/10 03:02:33;;;;;;;12.98;5.25;;;10.20;99.90;;;;;;5029777;28;20151;-74
2022/11/10 03:04:59;;;;;;;13.07;5.38;;;10.20;99.90;;;;;;5014922;28;20435;-69
2022/11/10 03:07:25;;;;;;;14.00;5.45;;;10.20;99.90;;;;;;5047081;28;20607;-67
2022/11/10 03:09:50;;;;;;;13.93;5.28;;;10.20;99.90;;;;;;5047478;28;20032;-68
2022/11/10 03:12:17;;;;;;;13.93;5.18;;;10.30;99.90;;;;;;5051215;28;20067;-66
2022/11/10 03:14:42;;;;;;;11.60;5.15;;;10.30;99.90;;;;;;5038362;28;20501;-68
2022/11/10 03:17:08;;;;;;;15.98;5.95;;;10.30;99.90;;;;;;5030904;28;20030;-66
2022/11/10 03:19:34;;;;;;;20.02;6.00;;;10.30;99.90;;;;;;5026948;28;20033;-70
2022/11/10 03:22:00;;;;;;;19.35;5.93;;;10.30;99.90;;;;;;5028246;28;20053;-73
2022/11/10 03:24:25;;;;;;;17.27;5.90;;;10.30;99.90;;;;;;5041266;28;20041;-67
2022/11/10 03:26:51;;;;;;;12.80;5.70;;;10.30;99.90;;;;;;5045004;28;20402;-66
2022/11/10 03:29:16;;;;;;;14.05;5.68;;;10.20;99.90;;;;;;5029334;28;20060;-66
2022/11/10 03:31:42;;;;;;;15.85;5.50;;;10.20;99.90;;;;;;5029985;28;20041;-68
2022/11/10 03:34:08;;;;;;;16.27;5.82;;;10.10;99.90;;;;;;5041981;28;20040;-65
2022/11/10 03:36:33;;;;;;;23.25;5.70;;;10.00;99.90;;;;;;5043013;28;20040;-65
2022/11/10 03:38:59;;;;;;;18.98;6.72;;;10.00;99.90;;;;;;5048449;28;20029;-67
2022/11/10 03:41:25;;;;;;;19.23;6.28;;;10.00;99.90;;;;;;5026689;28;20475;-65
2022/11/10 03:43:50;;;;;;;17.30;6.10;;;9.90;99.90;;;;;;5047023;28;20029;-66
2022/11/10 03:46:17;;;;;;;18.52;5.88;;;9.90;99.90;;;;;;5030037;28;20025;-66
2022/11/10 03:48:42;;;;;;;15.93;6.55;;;9.80;99.90;;;;;;5029174;28;20025;-69
2022/11/10 03:51:08;;;;;;;13.93;6.40;;;9.80;99.90;;;;;;5029398;28;20031;-67
2022/11/10 03:53:33;;;;;;;20.83;7.15;;;9.70;99.90;;;;;;5030732;28;20405;-68
2022/11/10 03:56:00;;;;;;;20.45;7.00;;;9.70;99.90;;;;;;5037070;28;20093;-68
2022/11/10 03:58:26;;;;;;;25.77;7.28;;;9.70;99.90;;;;;;5029881;28;20049;-65
2022/11/10 04:00:55;;;;;;;16.83;6.47;;;9.60;99.90;;;;;;5040388;28;20033;-64
2022/11/10 04:03:21;;;;;;;22.83;7.53;;;9.60;99.90;;;;;;5035368;28;20171;-69
2022/11/10 04:16:43;;;;;;;25.52;8.35;;;9.50;99.90;;;;;;5034036;28;20040;-66
2022/11/10 04:19:09;;;;;;;29.05;8.48;;;9.50;99.90;;;;;;5036844;28;20033;-68
2022/11/10 04:21:34;;;;;;;18.90;9.15;;;9.40;99.90;;;;;;5032523;28;20103;-68
2022/11/10 04:24:00;;;;;;;21.63;9.00;;;9.50;99.90;;;;;;5029097;28;20064;-66
2022/11/10 04:26:28;;;;;;;23.63;9.57;;;9.50;99.90;;;;;;5038689;28;20466;-70
2022/11/10 04:28:59;;;;;;;28.20;9.18;;;9.50;99.90;;;;;;5017033;28;20083;-67
2022/11/10 04:31:26;;;;;;;;;;;9.50;99.90;;;;;;5048980;28;20032;-65
2022/11/10 04:33:53;;;;;;;32.45;9.02;;;9.50;99.90;;;;;;5032789;28;19919;-70
2022/11/10 04:36:21;;;;;;;93.63;10.55;;;9.40;99.90;;;;;;5032690;28;20426;-65
2022/11/10 04:38:47;;;;;;;106.30;12.65;;;9.40;99.90;;;;;;5028928;28;20030;-66
2022/11/10 04:41:13;;;;;;;191.68;13.35;;;9.40;99.90;;;;;;5042319;28;20029;-69
2022/11/10 04:43:39;;;;;;;496.85;24.25;;;9.40;99.90;;;;;;5049664;28;20028;-66
2022/11/10 04:46:06;;;;;;;358.60;19.02;;;9.40;99.90;;;;;;5033103;28;20040;-66
2022/11/10 04:48:33;;;;;;;213.85;14.57;;;9.40;99.90;;;;;;5029664;28;20033;-70
2022/11/10 04:51:06;;;;;;;107.55;12.88;;;9.30;99.90;;;;;;5030223;28;20042;-66
2022/11/10 04:53:32;;;;;;;277.15;17.05;;;9.30;99.90;;;;;;5029395;28;20045;-67
2022/11/10 04:55:58;;;;;;;60.67;12.15;;;9.20;99.90;;;;;;5043557;28;20044;-67
2022/11/10 04:58:24;;;;;;;44.05;11.68;;;9.30;99.90;;;;;;5030064;28;20033;-72
2022/11/10 05:00:49;;;;;;;22.95;10.82;;;9.20;99.90;;;;;;5011741;28;20112;-69
2022/11/10 05:03:15;;;;;;;20.30;9.50;;;9.20;99.90;;;;;;5029166;28;20466;-66
2022/11/10 05:05:40;;;;;;;22.50;10.18;;;9.20;99.90;;;;;;5026742;28;20120;-74
2022/11/10 05:08:07;;;;;;;25.00;9.35;;;9.10;99.90;;;;;;5027556;28;20032;-67
2022/11/10 05:10:35;;;;;;;17.80;8.70;;;9.00;99.90;;;;;;5041073;28;20036;-70
2022/11/10 05:13:02;;;;;;;17.00;8.30;;;8.90;99.90;;;;;;5039584;28;20033;-66
2022/11/10 05:15:27;;;;;;;18.83;9.07;;;8.80;99.90;;;;;;5032765;28;20433;-70
2022/11/10 05:17:53;;;;;;;23.15;9.38;;;8.80;99.90;;;;;;5048291;28;20035;-67
2022/11/10 05:20:21;;;;;;;21.17;9.38;;;8.80;99.90;;;;;;5045503;28;20086;-74
2022/11/10 05:23:36;;;;;;;26.70;9.80;;;8.80;99.90;;;;;;5027414;28;20049;-67
2022/11/10 05:25:36;;;;;;;19.67;9.55;;;8.80;99.90;;;;;;5028265;28;20087;-67
2022/11/10 05:28:03;;;;;;;21.17;8.65;;;8.80;99.90;;;;;;5036469;28;20466;-69
2022/11/10 05:30:29;;;;;;;20.65;8.82;;;8.80;99.90;;;;;;5029074;28;20479;-67
2022/11/10 05:32:54;;;;;;;16.58;7.53;;;8.80;99.90;;;;;;5027922;28;20035;-68
2022/11/10 05:35:20;;;;;;;14.80;7.53;;;8.60;99.90;;;;;;5029958;28;20063;-68
2022/11/10 05:37:46;;;;;;;14.63;7.38;;;8.60;99.90;;;;;;5028029;28;20544;-76
2022/11/10 05:40:12;;;;;;;15.68;7.68;;;8.60;99.90;;;;;;5044863;28;20037;-66
2022/11/10 05:42:46;;;;;;;21.17;8.35;;;8.60;99.90;;;;;;5041582;28;20033;-70
2022/11/10 05:45:12;;;;;;;16.88;7.72;;;8.50;99.90;;;;;;5034104;28;20041;-68
2022/11/10 05:47:38;;;;;;;15.82;8.13;;;8.40;99.90;;;;;;5028109;28;20038;-67
2022/11/10 05:50:05;;;;;;;18.63;8.98;;;8.30;99.90;;;;;;5032814;28;20696;-73
2022/11/10 05:52:30;;;;;;;24.42;9.63;;;8.40;99.90;;;;;;5043617;28;20033;-68
2022/11/10 05:54:56;;;;;;;24.83;10.00;;;8.40;99.90;;;;;;5031109;28;20040;-66
2022/11/10 05:57:22;;;;;;;29.77;11.48;;;8.50;99.90;;;;;;5030685;28;20087;-66
2022/11/10 05:59:47;;;;;;;28.27;10.50;;;8.60;99.90;;;;;;5024430;28;20033;-76
2022/11/10 06:02:13;;;;;;;36.67;10.73;;;8.70;99.90;;;;;;5032261;28;20064;-66
2022/11/10 06:04:38;;;;;;;236.82;11.20;;;8.70;99.90;;;;;;5029582;28;20117;-66
2022/11/10 06:07:06;;;;;;;94.15;9.27;;;8.60;99.90;;;;;;5027504;28;20124;-68
2022/11/10 06:09:32;;;;;;;775.40;23.33;;;8.60;99.90;;;;;;5033819;28;20477;-71
2022/11/10 06:11:58;;;;;;;270.65;12.85;;;8.30;99.90;;;;;;5041089;28;20367;-65
2022/11/10 06:14:24;;;;;;;29.33;8.25;;;8.20;99.90;;;;;;5040250;28;20088;-67
2022/11/10 06:16:49;;;;;;;29.20;8.20;;;8.10;99.90;;;;;;5041146;28;20025;-69
2022/11/10 06:19:17;;;;;;;26.77;9.80;;;8.10;99.90;;;;;;5039787;28;20076;-66
2022/11/10 06:21:43;;;;;;;24.05;10.02;;;8.10;99.90;;;;;;5025590;28;20046;-67
2022/11/10 06:24:09;;;;;;;32.22;11.15;;;8.20;99.90;;;;;;5026286;28;20037;-66
2022/11/10 06:26:35;;;;;;;21.50;9.60;;;8.20;99.90;;;;;;5035375;28;20040;-66
2022/11/10 06:29:01;;;;;;;24.08;9.63;;;8.30;99.90;;;;;;5044427;28;20029;-67
2022/11/10 06:31:27;;;;;;;23.20;10.18;;;8.20;99.90;;;;;;5034866;28;20108;-69
2022/11/10 06:33:52;;;;;;;24.90;9.27;;;8.30;99.90;;;;;;5041991;28;20533;-71
2022/11/10 06:36:18;;;;;;;23.80;9.70;;;8.20;99.90;;;;;;5031037;28;20035;-67
2022/11/10 06:38:44;;;;;;;286.40;14.98;;;8.30;99.90;;;;;;5039631;28;20043;-66
2022/11/10 06:41:09;;;;;;;21.30;9.18;;;8.20;99.90;;;;;;5025596;28;20845;-68
2022/11/10 06:43:35;;;;;;;27.98;10.30;;;8.10;99.90;;;;;;5027618;28;20030;-67
2022/11/10 06:46:00;;;;;;;26.40;10.70;;;8.10;99.90;;;;;;5024908;28;20486;-68
2022/11/10 06:48:26;;;;;;;22.88;10.35;;;8.10;99.90;;;;;;5032662;28;20034;-66
2022/11/10 06:50:52;;;;;;;22.77;9.95;;;8.10;99.90;;;;;;5034431;28;20696;-66
2022/11/10 06:53:17;;;;;;;22.08;9.93;;;8.20;99.90;;;;;;5026737;28;20033;-68
2022/11/10 06:55:43;;;;;;;23.48;10.63;;;8.20;99.90;;;;;;5031723;28;20045;-66
2022/11/10 06:58:09;;;;;;;20.23;8.90;;;8.20;99.90;;;;;;5048669;28;20497;-73
2022/11/10 07:00:35;;;;;;;23.27;8.20;;;8.20;99.90;;;;;;5028721;28;20036;-69
2022/11/10 07:03:12;;;;;;;19.23;8.13;;;8.20;99.90;;;;;;5030690;28;20033;-65
2022/11/10 07:05:38;;;;;;;25.08;8.07;;;8.20;99.90;;;;;;5038257;28;20059;-67
2022/11/10 07:08:06;;;;;;;19.88;8.73;;;8.20;99.90;;;;;;5041814;28;20056;-68
2022/11/10 07:10:32;;;;;;;25.55;7.90;;;8.20;99.90;;;;;;5043469;28;20064;-66
2022/11/10 07:12:59;;;;;;;18.92;7.15;;;8.20;99.90;;;;;;5050375;28;20033;-67
2022/11/10 07:15:25;;;;;;;17.45;7.10;;;8.20;99.90;;;;;;5037295;28;20041;-67
2022/11/10 07:17:51;;;;;;;20.40;6.30;;;8.30;99.90;;;;;;5046090;28;20032;-74
2022/11/10 07:20:17;;;;;;;13.20;5.93;;;8.30;99.90;;;;;;5035300;28;20040;-64
2022/11/10 07:22:42;;;;;;;19.13;6.15;;;8.40;99.90;;;;;;5046065;28;20661;-69
2022/11/10 07:25:08;;;;;;;14.27;6.68;;;8.40;99.90;;;;;;5028511;28;20045;-69
2022/11/10 07:27:34;;;;;;;16.85;6.57;;;8.40;99.90;;;;;;5024460;28;20029;-69
2022/11/10 07:29:59;;;;;;;16.00;7.28;;;8.40;99.90;;;;;;5037983;28;20100;-67
2022/11/10 07:32:25;;;;;;;20.23;6.95;;;8.50;99.90;;;;;;5040355;28;20522;-67
2022/11/10 07:34:51;;;;;;;19.55;7.88;;;8.60;99.90;;;;;;5043719;28;20044;-72
2022/11/10 07:37:16;;;;;;;20.67;10.30;;;8.70;99.90;;;;;;5050405;28;20035;-66
2022/11/10 07:39:42;;;;;;;25.20;10.32;;;8.70;99.90;;;;;;5036652;28;21276;-71
2022/11/10 07:42:08;;;;;;;26.05;10.15;;;8.80;99.90;;;;;;5039276;28;20036;-68
2022/11/10 07:44:33;;;;;;;24.15;8.93;;;8.80;99.90;;;;;;5036632;28;20121;-68
2022/11/10 07:46:59;;;;;;;23.02;9.02;;;8.90;99.90;;;;;;5037306;28;20219;-67
2022/11/10 07:49:25;;;;;;;22.30;8.57;;;9.00;99.90;;;;;;5046008;28;20527;-66
2022/11/10 07:51:50;;;;;;;25.95;9.50;;;9.10;99.90;;;;;;5039772;28;20033;-73
2022/11/10 07:54:16;;;;;;;20.52;8.30;;;9.30;99.90;;;;;;5029417;28;20033;-67
2022/11/10 07:56:42;;;;;;;23.05;9.25;;;9.40;99.90;;;;;;5023808;28;20678;-64
2022/11/10 07:59:08;;;;;;;19.60;8.32;;;9.50;99.90;;;;;;5020854;28;20029;-66
2022/11/10 08:01:34;;;;;;;27.50;9.40;;;9.60;99.90;;;;;;5021072;28;20048;-65
2022/11/10 08:03:59;;;;;;;24.30;8.68;;;9.60;99.90;;;;;;5017599;28;20069;-69
2022/11/10 08:06:25;;;;;;;27.08;10.15;;;9.80;99.90;;;;;;5020943;28;20109;-65
2022/11/10 08:08:50;;;;;;;31.52;9.15;;;9.90;99.90;;;;;;5019474;28;20037;-72
2022/11/10 08:11:16;;;;;;;25.08;10.20;;;10.00;99.90;;;;;;5017864;28;20049;-66
2022/11/10 08:13:42;;;;;;;23.65;9.65;;;10.00;99.90;;;;;;5014560;28;20554;-67
2022/11/10 08:16:08;;;;;;;24.92;9.57;;;9.90;99.90;;;;;;5017380;28;20124;-67
2022/11/10 08:18:34;;;;;;;21.23;9.13;;;9.80;99.90;;;;;;5017235;28;20025;-66
2022/11/10 08:21:00;;;;;;;29.80;9.82;;;9.70;99.90;;;;;;5019134;28;20637;-66
2022/11/10 08:23:27;;;;;;;27.55;10.40;;;9.70;99.90;;;;;;5016224;28;20037;-70
2022/11/10 08:25:56;;;;;;;27.60;9.93;;;9.90;99.90;;;;;;5033161;28;20109;-73
2022/11/10 08:28:22;;;;;;;23.63;9.55;;;10.00;99.90;;;;;;5026854;28;20037;-65
2022/11/10 08:30:48;;;;;;;20.98;8.48;;;10.10;99.90;;;;;;5060818;28;20032;-67
2022/11/10 08:33:17;;;;;;;26.38;9.18;;;10.30;99.90;;;;;;5047378;28;20017;-66
2022/11/10 08:35:45;;;;;;;24.27;9.10;;;10.20;99.90;;;;;;5040376;28;20048;-70
2022/11/10 08:38:17;;;;;;;27.38;8.98;;;10.10;99.90;;;;;;5043192;28;20032;-68
2022/11/10 08:40:44;;;;;;;26.58;9.63;;;10.00;99.90;;;;;;5037426;28;20114;-68
2022/11/10 08:43:10;;;;;;;23.85;9.18;;;9.90;99.90;;;;;;5045475;28;20810;-65
2022/11/10 08:45:38;;;;;;;26.52;10.05;;;9.90;99.90;;;;;;5033461;28;20099;-65
2022/11/10 08:48:06;;;;;;;28.65;9.63;;;10.20;99.90;;;;;;5029006;28;20036;-66
2022/11/10 08:50:33;;;;;;;25.42;9.27;;;10.20;99.90;;;;;;5038940;28;20057;-67
2022/11/10 08:53:08;;;;;;;22.63;8.63;;;10.30;99.90;;;;;;5043222;28;20418;-65
2022/11/10 08:55:34;;;;;;;21.25;7.97;;;10.30;99.90;;;;;;5028667;28;20111;-66
2022/11/10 08:58:03;;;;;;;21.88;7.80;;;10.40;99.90;;;;;;5042171;28;20116;-66
2022/11/10 09:00:31;;;;;;;18.93;7.20;;;10.60;99.90;;;;;;5042802;28;20029;-67
2022/11/10 09:03:04;;;;;;;19.98;6.43;;;10.80;99.90;;;;;;5028630;28;20029;-73
2022/11/10 09:05:30;;;;;;;23.92;6.28;;;10.70;99.90;;;;;;5031129;28;20615;-68
2022/11/10 09:07:56;;;;;;;24.17;7.40;;;10.70;99.90;;;;;;5028444;28;20095;-70
2022/11/10 09:10:21;;;;;;;15.55;7.00;;;10.70;99.90;;;;;;5035325;28;20040;-64
2022/11/10 09:12:47;;;;;;;15.23;6.20;;;10.80;99.90;;;;;;5044252;28;20112;-65
2022/11/10 09:15:13;;;;;;;17.27;6.95;;;10.80;99.90;;;;;;5042305;28;20086;-68
2022/11/10 09:17:40;;;;;;;24.05;7.32;;;11.00;99.90;;;;;;5028228;28;20037;-65
2022/11/10 09:20:07;;;;;;;19.25;6.38;;;11.20;99.90;;;;;;5033325;28;20397;-67
2022/11/10 09:22:35;;;;;;;18.70;6.15;;;11.20;99.90;;;;;;5045395;28;20130;-67
2022/11/10 09:25:01;;;;;;;13.75;5.93;;;11.30;99.90;;;;;;5014422;28;20124;-64
2022/11/10 09:27:27;;;;;;;21.88;6.28;;;11.40;99.90;;;;;;5038656;28;20548;-66
2022/11/10 09:29:52;;;;;;;12.32;6.55;;;11.60;99.90;;;;;;5045166;28;20047;-72
2022/11/10 09:32:18;;;;;;;19.00;7.55;;;11.60;99.90;;;;;;5027390;28;20032;-66
2022/11/10 09:34:44;;;;;;;15.68;6.82;;;11.50;99.90;;;;;;5042268;28;20059;-66
2022/11/10 09:37:09;;;;;;;17.02;6.97;;;11.20;99.90;;;;;;5029803;28;20397;-67
2022/11/10 09:39:35;;;;;;;26.13;7.93;;;10.90;99.90;;;;;;5037380;28;20033;-67
2022/11/10 09:42:02;;;;;;;14.45;7.90;;;10.70;99.90;;;;;;5047581;28;20098;-67
2022/11/10 09:44:50;;;;;;;14.75;7.53;;;10.60;99.90;;;;;;5044833;28;20029;-67
2022/11/10 09:47:26;;;;;;;16.02;7.38;;;10.70;99.90;;;;;;5037033;28;20029;-65
2022/11/10 09:49:57;;;;;;;12.98;6.40;;;11.00;99.90;;;;;;5048722;28;20025;-65
2022/11/10 09:52:25;;;;;;;15.77;6.85;;;11.10;99.90;;;;;;5038661;28;20080;-65
2022/11/10 09:54:58;;;;;;;17.42;6.93;;;11.10;99.90;;;;;;5036058;28;20123;-68
2022/11/10 09:57:26;;;;;;;15.13;6.70;;;11.00;99.90;;;;;;5042520;28;20108;-67
2022/11/10 09:59:52;;;;;;;19.27;7.65;;;10.60;99.90;;;;;;5046252;28;20029;-66
2022/11/10 10:02:22;;;;;;;18.15;7.28;;;10.40;99.90;;;;;;5030749;28;20040;-67
2022/11/10 10:05:22;;;;;;;18.13;7.03;;;10.30;99.90;;;;;;5038188;28;20041;-65
2022/11/10 10:07:58;;;;;;;20.50;6.60;;;10.20;99.90;;;;;;5026909;28;20033;-67
2022/11/10 10:10:51;;;;;;;17.13;6.47;;;10.30;99.90;;;;;;5048161;28;20061;-64
2022/11/10 10:13:49;;;;;;;16.13;6.85;;;10.20;99.90;;;;;;5045160;28;20486;-66
2022/11/10 10:16:29;;;;;;;15.77;7.10;;;10.40;99.90;;;;;;5021123;28;20119;-65
2022/11/10 10:19:16;;;;;;;15.80;7.10;;;10.60;99.90;;;;;;5027252;28;20545;-67
2022/11/10 10:22:06;;;;;;;17.15;6.95;;;10.70;99.90;;;;;;5032503;28;20052;-65
2022/11/10 10:24:33;;;;;;;15.32;7.32;;;11.10;99.90;;;;;;5019943;28;20041;-66
2022/11/10 10:27:03;;;;;;;13.93;5.75;;;11.30;99.90;;;;;;5016440;28;20032;-74
2022/11/10 10:29:41;;;;;;;15.63;5.33;;;11.50;99.90;;;;;;5041664;28;20051;-64
2022/11/10 10:32:15;;;;;;;14.85;5.93;;;11.60;99.90;;;;;;5036930;28;20283;-66
2022/11/10 10:34:43;;;;;;;17.30;5.32;;;11.60;99.90;;;;;;5027514;28;20120;-66
2022/11/10 10:37:39;;;;;;;9.20;4.50;;;11.30;99.90;;;;;;5035285;28;20032;-65
2022/11/10 10:40:19;;;;;;;10.27;4.75;;;11.30;99.90;;;;;;5046967;28;20033;-65
2022/11/10 10:42:45;;;;;;;9.93;4.88;;;11.60;99.90;;;;;;5050694;28;20040;-69
2022/11/10 10:45:23;;;;;;;11.93;4.60;;;11.70;99.90;;;;;;5050854;28;20553;-68
2022/11/10 10:47:51;;;;;;;8.20;3.92;;;11.60;99.90;;;;;;5030486;28;20104;-69
2022/11/10 10:50:25;;;;;;;10.02;4.65;;;11.60;99.90;;;;;;5031018;28;20796;-66
2022/11/10 10:53:20;;;;;;;11.10;5.15;;;11.70;99.90;;;;;;5044239;28;20021;-68
2022/11/10 10:56:00;;;;;;;17.08;5.00;;;11.90;99.90;;;;;;5038242;28;20037;-66
2022/11/10 10:58:29;;;;;;;8.13;3.60;;;12.00;99.90;;;;;;5029108;28;20033;-65
2022/11/10 11:00:58;;;;;;;11.07;3.72;;;12.40;99.90;;;;;;5041039;28;20084;-66
2022/11/10 11:03:28;;;;;;;7.18;3.78;;;12.60;99.90;;;;;;5031583;28;20025;-73
2022/11/10 11:06:14;;;;;;;6.28;3.08;;;12.60;99.90;;;;;;5033138;28;20041;-66
2022/11/10 11:09:06;;;;;;;10.23;3.33;;;12.70;99.90;;;;;;5050380;28;20040;-69
2022/11/10 11:11:35;;;;;;;13.65;3.33;;;12.70;99.90;;;;;;5047792;28;20075;-65
2022/11/10 11:14:22;;;;;;;9.68;2.67;;;12.60;99.90;;;;;;5044436;28;20036;-75
2022/11/10 11:16:51;;;;;;;13.18;2.97;;;12.60;99.90;;;;;;5026940;28;20095;-65
2022/11/10 11:19:23;;;;;;;9.52;2.75;;;12.90;99.90;;;;;;5029325;28;20437;-66
2022/11/10 11:22:00;;;;;;;7.18;3.13;;;13.00;99.90;;;;;;5044882;28;20053;-67
2022/11/10 11:24:38;;;;;;;8.32;3.47;;;12.90;99.90;;;;;;5048012;28;20037;-67
2022/11/10 11:27:22;;;;;;;9.02;2.72;;;12.70;99.90;;;;;;5031409;28;20052;-73
2022/11/10 11:30:03;;;;;;;12.15;3.33;;;12.70;99.90;;;;;;5029276;28;20040;-69
2022/11/10 11:32:43;;;;;;;8.80;2.88;;;12.90;99.90;;;;;;5032603;28;20115;-66
2022/11/10 11:35:31;;;;;;;8.25;2.83;;;13.20;99.90;;;;;;5050242;28;20127;-67
2022/11/10 11:38:29;;;;;;;10.93;2.55;;;13.30;99.90;;;;;;5040109;28;20033;-71
2022/11/10 11:41:07;;;;;;;9.38;2.47;;;13.40;99.90;;;;;;5038862;28;20720;-69
2022/11/10 11:44:11;;;;;;;10.77;2.40;;;13.60;99.90;;;;;;5047827;28;20420;-70
2022/11/10 11:47:12;;;;;;;9.20;2.25;;;13.70;99.90;;;;;;5045440;28;20044;-70
2022/11/10 11:49:59;;;;;;;6.70;1.92;;;13.90;99.90;;;;;;5050811;28;20021;-68
2022/11/10 11:52:37;;;;;;;9.32;2.28;;;13.70;99.90;;;;;;5041275;28;20091;-67
2022/11/10 11:55:14;;;;;;;7.70;1.85;;;13.50;99.90;;;;;;5050678;28;20389;-75
2022/11/10 11:58:04;;;;;;;4.97;1.80;;;13.50;99.90;;;;;;5044057;28;20076;-69
2022/11/10 12:00:44;;;;;;;9.32;1.63;;;13.40;99.90;;;;;;5046768;28;20405;-69
2022/11/10 12:03:47;;;;;;;5.63;1.90;;;13.70;99.90;;;;;;5040312;28;20124;-67
2022/11/10 12:06:19;;;;;;;4.63;1.60;;;13.80;99.90;;;;;;5040818;28;21662;-70
2022/11/10 12:08:59;;;;;;;6.75;1.58;;;13.60;99.90;;;;;;5050231;28;20033;-67
2022/11/10 12:11:53;;;;;;;5.20;1.50;;;13.70;99.90;;;;;;5038841;28;20037;-66
2022/11/10 12:14:52;;;;;;;4.85;1.08;;;13.70;99.90;;;;;;5031883;28;20060;-66
2022/11/10 12:17:48;;;;;;;5.45;1.65;;;13.70;99.90;;;;;;5031930;28;20052;-67
2022/11/10 12:20:19;;;;;;;2.65;0.95;;;13.80;99.90;;;;;;5027861;28;20494;-67
2022/11/10 12:23:12;;;;;;;5.05;1.08;;;14.00;99.90;;;;;;5031206;28;20073;-68
2022/11/10 12:25:44;;;;;;;8.32;1.30;;;14.10;99.90;;;;;;5029807;28;20120;-67
2022/11/10 12:29:00;;;;;;;7.03;1.15;;;14.40;99.90;;;;;;5047171;28;20028;-69
2022/11/10 12:31:29;;;;;;;11.40;1.45;;;14.30;99.90;;;;;;5000384;28;20113;-68
2022/11/10 12:34:04;;;;;;;6.68;1.35;;;14.20;99.90;;;;;;5040169;28;20044;-70
2022/11/10 12:36:30;;;;;;;5.40;1.20;;;14.10;99.90;;;;;;5029067;28;20033;-68
2022/11/10 12:39:05;;;;;;;6.28;1.38;;;14.00;99.90;;;;;;5036699;28;20029;-69
2022/11/10 12:41:42;;;;;;;2.90;1.10;;;14.00;99.90;;;;;;5046598;28;20037;-68
2022/11/10 12:44:32;;;;;;;3.17;1.17;;;14.20;99.90;;;;;;5045316;28;20028;-72
2022/11/10 12:47:03;;;;;;;6.43;1.10;;;14.20;99.90;;;;;;5040541;28;20121;-67
2022/11/10 12:49:35;;;;;;;3.58;0.88;;;14.30;99.90;;;;;;5031786;28;20136;-67
2022/11/10 12:52:12;;;;;;;4.03;1.10;;;14.60;99.90;;;;;;5047777;28;20029;-69
2022/11/10 12:54:45;;;;;;;3.25;1.10;;;14.40;99.90;;;;;;5035918;28;20124;-67
2022/11/10 12:57:18;;;;;;;6.82;1.27;;;14.60;99.90;;;;;;5029060;28;20700;-72
2022/11/10 13:00:16;;;;;;;9.88;1.33;;;14.90;99.90;;;;;;5034497;28;20040;-68
2022/11/10 13:02:46;;;;;;;4.93;1.23;;;14.80;99.90;;;;;;5045467;28;20028;-69
2022/11/10 13:05:31;;;;;;;10.65;2.50;;;14.90;99.90;;;;;;5045886;28;20482;-69
2022/11/10 13:08:05;;;;;;;14.63;1.70;;;15.10;99.90;;;;;;5031595;28;20079;-71